Main page
METAR-TAF:

METAR-TAF

Airports :

Hurghada International Airport

Hurghada, Egypt

latitude: 27-09N, longitude: 033-43E, elevation: 16 m

Current weather observation

The report was made 51 minutes ago, at 19:00 UTC
Calm wind
Temperature 25°C
Humidity 26%
Pressure 1012 hPa
Visibility 10 km or more
no clouds below 1500 m and no cumulonimbus

METAR: HEGN 281900Z 00000KT CAVOK 25/04 Q1012 NOSIG

Time: 21:51 (19:51 UTC)

Forecast

The report was made 2 hours and 51 minutes ago, at 17:00 UTC
Forecast valid from 28 at 18 UTC to 29 at 24 UTC
Wind 10 kt from the West
Visibility 10 km or more
no clouds below 1500 m and no cumulonimbus

TAF: HEGN 281700Z 2818/2924 27010KT CAVOK

Weather observations and forecasts of more than 4000 airports (METAR and TAF reports).

The available stations are represented by yellow and red dots on the map.

Hover mouse over dot to see the name of the station.

Then click to see weather observations and forecasts.

To change the map : click on the green buttons with a black cross to zoom in, on the green button with a dash to zoom out, or on the green arrows for adjacent maps.


METAR-TAF: